sensor_id;sensor_type;location;lat;lon;timestamp;temperature;humidity
44513;DHT22;30219;50.588;9.504;2023-04-08T00:00:40;1.90;99.90
44513;DHT22;30219;50.588;9.504;2023-04-08T00:03:05;1.80;99.90
44513;DHT22;30219;50.588;9.504;2023-04-08T00:05:31;1.80;99.90
44513;DHT22;30219;50.588;9.504;2023-04-08T00:07:57;1.90;99.90
44513;DHT22;30219;50.588;9.504;2023-04-08T00:10:23;1.90;99.90
44513;DHT22;30219;50.588;9.504;2023-04-08T00:12:50;1.80;99.90
44513;DHT22;30219;50.588;9.504;2023-04-08T00:15:16;1.70;99.90
44513;DHT22;30219;50.588;9.504;2023-04-08T00:17:41;1.50;99.90
44513;DHT22;30219;50.588;9.504;2023-04-08T00:20:07;1.40;99.90
44513;DHT22;30219;50.588;9.504;2023-04-08T00:22:33;1.40;99.90
44513;DHT22;30219;50.588;9.504;2023-04-08T00:24:58;1.40;99.90
44513;DHT22;30219;50.588;9.504;2023-04-08T00:27:24;1.40;99.90
44513;DHT22;30219;50.588;9.504;2023-04-08T00:29:50;1.30;99.90
44513;DHT22;30219;50.588;9.504;2023-04-08T00:32:15;1.30;99.90
44513;DHT22;30219;50.588;9.504;2023-04-08T00:34:41;1.30;99.90
44513;DHT22;30219;50.588;9.504;2023-04-08T00:37:07;1.40;99.90
44513;DHT22;30219;50.588;9.504;2023-04-08T00:39:33;1.30;99.90
44513;DHT22;30219;50.588;9.504;2023-04-08T00:41:58;1.30;99.90
44513;DHT22;30219;50.588;9.504;2023-04-08T00:44:23;1.30;99.90
44513;DHT22;30219;50.588;9.504;2023-04-08T00:46:49;1.30;99.90
44513;DHT22;30219;50.588;9.504;2023-04-08T00:49:15;1.30;99.90
44513;DHT22;30219;50.588;9.504;2023-04-08T00:51:41;1.30;99.90
44513;DHT22;30219;50.588;9.504;2023-04-08T00:54:07;1.40;99.90
44513;DHT22;30219;50.588;9.504;2023-04-08T00:56:32;1.30;99.90
44513;DHT22;30219;50.588;9.504;2023-04-08T00:58:59;1.40;99.90
44513;DHT22;30219;50.588;9.504;2023-04-08T01:08:45;1.30;99.90
44513;DHT22;30219;50.588;9.504;2023-04-08T01:11:11;1.30;99.90
44513;DHT22;30219;50.588;9.504;2023-04-08T01:13:38;1.30;99.90
44513;DHT22;30219;50.588;9.504;2023-04-08T01:16:05;1.30;99.90
44513;DHT22;30219;50.588;9.504;2023-04-08T01:18:30;1.30;99.90
44513;DHT22;30219;50.588;9.504;2023-04-08T01:20:57;1.20;99.90
44513;DHT22;30219;50.588;9.504;2023-04-08T01:25:55;1.30;99.90
44513;DHT22;30219;50.588;9.504;2023-04-08T01:28:21;1.30;99.90
44513;DHT22;30219;50.588;9.504;2023-04-08T01:30:47;1.30;99.90
44513;DHT22;30219;50.588;9.504;2023-04-08T01:33:14;1.30;99.90
44513;DHT22;30219;50.588;9.504;2023-04-08T01:35:40;1.30;99.90
44513;DHT22;30219;50.588;9.504;2023-04-08T01:38:06;1.30;99.90
44513;DHT22;30219;50.588;9.504;2023-04-08T01:40:33;1.30;99.90
44513;DHT22;30219;50.588;9.504;2023-04-08T01:42:59;1.30;99.90
44513;DHT22;30219;50.588;9.504;2023-04-08T01:45:25;1.40;99.90
44513;DHT22;30219;50.588;9.504;2023-04-08T01:47:51;1.30;99.90
44513;DHT22;30219;50.588;9.504;2023-04-08T01:50:17;1.20;99.90
44513;DHT22;30219;50.588;9.504;2023-04-08T01:52:44;1.10;99.90
44513;DHT22;30219;50.588;9.504;2023-04-08T01:55:10;1.00;99.90
44513;DHT22;30219;50.588;9.504;2023-04-08T01:57:36;1.00;99.90
44513;DHT22;30219;50.588;9.504;2023-04-08T02:00:06;1.00;99.90
44513;DHT22;30219;50.588;9.504;2023-04-08T02:02:32;1.00;99.90
44513;DHT22;30219;50.588;9.504;2023-04-08T02:05:00;1.00;99.90
44513;DHT22;30219;50.588;9.504;2023-04-08T02:07:25;1.00;99.90
44513;DHT22;30219;50.588;9.504;2023-04-08T02:09:51;1.00;99.90
44513;DHT22;30219;50.588;9.504;2023-04-08T02:12:16;0.90;99.90
44513;DHT22;30219;50.588;9.504;2023-04-08T02:14:42;0.90;99.90
44513;DHT22;30219;50.588;9.504;2023-04-08T02:17:09;0.90;99.90
44513;DHT22;30219;50.588;9.504;2023-04-08T02:19:51;1.00;99.90
44513;DHT22;30219;50.588;9.504;2023-04-08T02:22:30;1.00;99.90
44513;DHT22;30219;50.588;9.504;2023-04-08T02:24:58;1.00;99.90
44513;DHT22;30219;50.588;9.504;2023-04-08T02:27:24;0.90;99.90
44513;DHT22;30219;50.588;9.504;2023-04-08T02:29:51;0.90;99.90
44513;DHT22;30219;50.588;9.504;2023-04-08T02:32:18;0.80;99.90
44513;DHT22;30219;50.588;9.504;2023-04-08T02:34:44;0.80;99.90
44513;DHT22;30219;50.588;9.504;2023-04-08T02:37:10;0.90;99.90
44513;DHT22;30219;50.588;9.504;2023-04-08T02:39:36;0.90;99.90
44513;DHT22;30219;50.588;9.504;2023-04-08T02:42:02;0.90;99.90
44513;DHT22;30219;50.588;9.504;2023-04-08T02:44:28;1.00;99.90
44513;DHT22;30219;50.588;9.504;2023-04-08T02:46:53;1.10;99.90
44513;DHT22;30219;50.588;9.504;2023-04-08T02:49:19;1.10;99.90
44513;DHT22;30219;50.588;9.504;2023-04-08T02:51:44;1.10;99.90
44513;DHT22;30219;50.588;9.504;2023-04-08T02:54:10;1.10;99.90
44513;DHT22;30219;50.588;9.504;2023-04-08T02:56:35;1.10;99.90
44513;DHT22;30219;50.588;9.504;2023-04-08T02:59:00;1.20;99.90
44513;DHT22;30219;50.588;9.504;2023-04-08T03:01:26;1.20;99.90
44513;DHT22;30219;50.588;9.504;2023-04-08T03:03:51;1.20;99.90
44513;DHT22;30219;50.588;9.504;2023-04-08T03:06:17;1.20;99.90
44513;DHT22;30219;50.588;9.504;2023-04-08T03:08:42;1.20;99.90
44513;DHT22;30219;50.588;9.504;2023-04-08T03:11:08;1.20;99.90
44513;DHT22;30219;50.588;9.504;2023-04-08T03:13:33;1.20;99.90
44513;DHT22;30219;50.588;9.504;2023-04-08T03:15:59;1.20;99.90
44513;DHT22;30219;50.588;9.504;2023-04-08T03:18:25;1.10;99.90
44513;DHT22;30219;50.588;9.504;2023-04-08T03:20:50;1.10;99.90
44513;DHT22;30219;50.588;9.504;2023-04-08T03:23:16;1.10;99.90
44513;DHT22;30219;50.588;9.504;2023-04-08T03:25:41;1.10;99.90
44513;DHT22;30219;50.588;9.504;2023-04-08T03:28:07;1.10;99.90
44513;DHT22;30219;50.588;9.504;2023-04-08T03:30:32;1.20;99.90
44513;DHT22;30219;50.588;9.504;2023-04-08T03:32:58;1.30;99.90
44513;DHT22;30219;50.588;9.504;2023-04-08T03:35:23;1.30;99.90
44513;DHT22;30219;50.588;9.504;2023-04-08T03:37:49;1.30;99.90
44513;DHT22;30219;50.588;9.504;2023-04-08T03:40:14;1.30;99.90
44513;DHT22;30219;50.588;9.504;2023-04-08T03:42:40;1.40;99.90
44513;DHT22;30219;50.588;9.504;2023-04-08T03:45:05;1.40;99.90
44513;DHT22;30219;50.588;9.504;2023-04-08T03:47:31;1.40;99.90
44513;DHT22;30219;50.588;9.504;2023-04-08T03:49:57;1.30;99.90
44513;DHT22;30219;50.588;9.504;2023-04-08T03:52:23;1.30;99.90
44513;DHT22;30219;50.588;9.504;2023-04-08T03:54:48;1.40;99.90
44513;DHT22;30219;50.588;9.504;2023-04-08T03:57:14;1.30;99.90
44513;DHT22;30219;50.588;9.504;2023-04-08T03:59:40;1.40;99.90
44513;DHT22;30219;50.588;9.504;2023-04-08T04:02:05;1.40;99.90
44513;DHT22;30219;50.588;9.504;2023-04-08T04:04:31;1.40;99.90
44513;DHT22;30219;50.588;9.504;2023-04-08T04:06:56;1.50;99.90
44513;DHT22;30219;50.588;9.504;2023-04-08T04:09:22;1.50;99.90
44513;DHT22;30219;50.588;9.504;2023-04-08T04:11:47;1.60;99.90
44513;DHT22;30219;50.588;9.504;2023-04-08T04:14:13;1.60;99.90
44513;DHT22;30219;50.588;9.504;2023-04-08T04:16:38;1.60;99.90
44513;DHT22;30219;50.588;9.504;2023-04-08T04:19:04;1.50;99.90
44513;DHT22;30219;50.588;9.504;2023-04-08T04:21:29;1.60;99.90
44513;DHT22;30219;50.588;9.504;2023-04-08T04:23:55;1.60;99.90
44513;DHT22;30219;50.588;9.504;2023-04-08T04:26:20;1.70;99.90
44513;DHT22;30219;50.588;9.504;2023-04-08T04:28:46;1.70;99.90
44513;DHT22;30219;50.588;9.504;2023-04-08T04:31:21;1.80;99.90
44513;DHT22;30219;50.588;9.504;2023-04-08T04:33:46;1.80;99.90
44513;DHT22;30219;50.588;9.504;2023-04-08T04:36:12;1.80;99.90
44513;DHT22;30219;50.588;9.504;2023-04-08T04:38:38;1.90;99.90
44513;DHT22;30219;50.588;9.504;2023-04-08T04:41:03;1.80;99.90
44513;DHT22;30219;50.588;9.504;2023-04-08T04:43:29;1.90;99.90
44513;DHT22;30219;50.588;9.504;2023-04-08T04:45:55;1.80;99.90
44513;DHT22;30219;50.588;9.504;2023-04-08T04:48:21;1.80;99.90
44513;DHT22;30219;50.588;9.504;2023-04-08T04:50:57;1.80;99.90
44513;DHT22;30219;50.588;9.504;2023-04-08T04:53:23;1.90;99.90
44513;DHT22;30219;50.588;9.504;2023-04-08T04:55:51;1.90;99.90
44513;DHT22;30219;50.588;9.504;2023-04-08T04:58:17;1.90;99.90
44513;DHT22;30219;50.588;9.504;2023-04-08T05:00:43;2.00;99.90
44513;DHT22;30219;50.588;9.504;2023-04-08T05:03:09;2.00;99.90
44513;DHT22;30219;50.588;9.504;2023-04-08T05:05:34;2.00;99.90
44513;DHT22;30219;50.588;9.504;2023-04-08T05:08:00;1.90;99.90
44513;DHT22;30219;50.588;9.504;2023-04-08T05:10:25;1.90;99.90
44513;DHT22;30219;50.588;9.504;2023-04-08T05:12:51;2.00;99.90
44513;DHT22;30219;50.588;9.504;2023-04-08T05:15:16;2.00;99.90
44513;DHT22;30219;50.588;9.504;2023-04-08T05:17:42;2.00;99.90
44513;DHT22;30219;50.588;9.504;2023-04-08T05:20:07;2.00;99.90
44513;DHT22;30219;50.588;9.504;2023-04-08T05:22:32;2.10;99.90
44513;DHT22;30219;50.588;9.504;2023-04-08T05:24:58;2.20;99.90
44513;DHT22;30219;50.588;9.504;2023-04-08T05:27:24;2.20;99.90
44513;DHT22;30219;50.588;9.504;2023-04-08T05:29:49;2.20;99.90
44513;DHT22;30219;50.588;9.504;2023-04-08T05:32:15;2.30;99.90
44513;DHT22;30219;50.588;9.504;2023-04-08T05:34:41;2.40;99.90
44513;DHT22;30219;50.588;9.504;2023-04-08T05:37:06;2.40;99.90
44513;DHT22;30219;50.588;9.504;2023-04-08T05:39:32;2.50;99.90
44513;DHT22;30219;50.588;9.504;2023-04-08T05:41:57;2.50;99.90
44513;DHT22;30219;50.588;9.504;2023-04-08T05:44:23;2.50;99.90
44513;DHT22;30219;50.588;9.504;2023-04-08T05:46:48;2.50;99.90
44513;DHT22;30219;50.588;9.504;2023-04-08T05:49:14;2.50;99.90
44513;DHT22;30219;50.588;9.504;2023-04-08T05:51:41;2.60;99.90
44513;DHT22;30219;50.588;9.504;2023-04-08T05:54:07;2.60;99.90
44513;DHT22;30219;50.588;9.504;2023-04-08T05:56:32;2.70;99.90
44513;DHT22;30219;50.588;9.504;2023-04-08T05:58:59;2.80;99.90
44513;DHT22;30219;50.588;9.504;2023-04-08T06:01:24;2.80;99.90
44513;DHT22;30219;50.588;9.504;2023-04-08T06:03:50;2.80;99.90
44513;DHT22;30219;50.588;9.504;2023-04-08T06:06:17;2.90;99.90
44513;DHT22;30219;50.588;9.504;2023-04-08T06:08:42;2.90;99.90
44513;DHT22;30219;50.588;9.504;2023-04-08T06:11:08;3.00;99.90
44513;DHT22;30219;50.588;9.504;2023-04-08T06:13:33;3.00;99.90
44513;DHT22;30219;50.588;9.504;2023-04-08T06:16:08;3.10;99.90
44513;DHT22;30219;50.588;9.504;2023-04-08T06:18:33;3.20;99.90
44513;DHT22;30219;50.588;9.504;2023-04-08T06:20:59;3.30;99.90
44513;DHT22;30219;50.588;9.504;2023-04-08T06:23:24;3.20;99.90
44513;DHT22;30219;50.588;9.504;2023-04-08T06:25:52;3.30;99.90
44513;DHT22;30219;50.588;9.504;2023-04-08T06:28:17;3.40;99.90
44513;DHT22;30219;50.588;9.504;2023-04-08T06:30:43;3.40;99.90
44513;DHT22;30219;50.588;9.504;2023-04-08T06:33:08;3.40;99.90
44513;DHT22;30219;50.588;9.504;2023-04-08T06:35:34;3.40;99.90
44513;DHT22;30219;50.588;9.504;2023-04-08T06:38:01;3.50;99.90
44513;DHT22;30219;50.588;9.504;2023-04-08T06:40:27;3.50;99.90
44513;DHT22;30219;50.588;9.504;2023-04-08T06:42:52;3.60;99.90
44513;DHT22;30219;50.588;9.504;2023-04-08T06:45:18;3.70;99.90
44513;DHT22;30219;50.588;9.504;2023-04-08T06:47:44;3.70;99.90
44513;DHT22;30219;50.588;9.504;2023-04-08T06:50:09;3.70;99.90
44513;DHT22;30219;50.588;9.504;2023-04-08T06:52:35;3.60;99.90
44513;DHT22;30219;50.588;9.504;2023-04-08T06:55:00;3.70;99.90
44513;DHT22;30219;50.588;9.504;2023-04-08T06:57:25;3.70;99.90
44513;DHT22;30219;50.588;9.504;2023-04-08T06:59:51;3.80;99.90
44513;DHT22;30219;50.588;9.504;2023-04-08T07:02:17;3.90;99.90
44513;DHT22;30219;50.588;9.504;2023-04-08T07:04:43;4.00;99.90
44513;DHT22;30219;50.588;9.504;2023-04-08T07:07:08;4.10;99.90
44513;DHT22;30219;50.588;9.504;2023-04-08T07:09:34;4.20;99.90
44513;DHT22;30219;50.588;9.504;2023-04-08T07:12:01;4.30;99.90
44513;DHT22;30219;50.588;9.504;2023-04-08T07:14:28;4.40;99.90
44513;DHT22;30219;50.588;9.504;2023-04-08T07:16:54;4.50;99.90
44513;DHT22;30219;50.588;9.504;2023-04-08T07:19:20;4.60;99.90
44513;DHT22;30219;50.588;9.504;2023-04-08T07:21:46;4.70;99.90
44513;DHT22;30219;50.588;9.504;2023-04-08T07:24:12;4.70;99.90
44513;DHT22;30219;50.588;9.504;2023-04-08T07:26:37;4.80;99.90
44513;DHT22;30219;50.588;9.504;2023-04-08T07:29:03;4.90;99.90
44513;DHT22;30219;50.588;9.504;2023-04-08T07:31:29;4.90;99.90
44513;DHT22;30219;50.588;9.504;2023-04-08T07:33:54;5.00;99.90
44513;DHT22;30219;50.588;9.504;2023-04-08T07:36:20;5.00;99.90
44513;DHT22;30219;50.588;9.504;2023-04-08T07:38:45;5.00;99.90
44513;DHT22;30219;50.588;9.504;2023-04-08T07:41:11;5.10;99.90
44513;DHT22;30219;50.588;9.504;2023-04-08T07:43:37;5.20;99.90
44513;DHT22;30219;50.588;9.504;2023-04-08T07:46:03;5.40;99.90
44513;DHT22;30219;50.588;9.504;2023-04-08T07:48:29;5.60;99.90
44513;DHT22;30219;50.588;9.504;2023-04-08T07:50:55;5.80;99.90
44513;DHT22;30219;50.588;9.504;2023-04-08T07:53:21;6.00;99.90
44513;DHT22;30219;50.588;9.504;2023-04-08T07:55:47;6.30;99.90
44513;DHT22;30219;50.588;9.504;2023-04-08T07:58:13;6.50;99.90
44513;DHT22;30219;50.588;9.504;2023-04-08T08:00:38;6.60;99.90
44513;DHT22;30219;50.588;9.504;2023-04-08T08:03:05;6.80;99.90
44513;DHT22;30219;50.588;9.504;2023-04-08T08:05:30;7.00;99.90
44513;DHT22;30219;50.588;9.504;2023-04-08T08:07:56;7.20;99.90
44513;DHT22;30219;50.588;9.504;2023-04-08T08:10:21;7.30;99.90
44513;DHT22;30219;50.588;9.504;2023-04-08T08:12:49;7.40;99.90
44513;DHT22;30219;50.588;9.504;2023-04-08T08:15:15;7.50;99.90
44513;DHT22;30219;50.588;9.504;2023-04-08T08:17:40;7.60;99.90
44513;DHT22;30219;50.588;9.504;2023-04-08T08:20:06;7.60;99.90
44513;DHT22;30219;50.588;9.504;2023-04-08T08:22:32;7.60;99.90
44513;DHT22;30219;50.588;9.504;2023-04-08T08:24:57;7.60;99.90
44513;DHT22;30219;50.588;9.504;2023-04-08T08:27:23;7.60;99.90
44513;DHT22;30219;50.588;9.504;2023-04-08T08:29:49;7.60;99.90
44513;DHT22;30219;50.588;9.504;2023-04-08T08:32:14;7.80;99.90
44513;DHT22;30219;50.588;9.504;2023-04-08T08:37:07;8.10;99.90
44513;DHT22;30219;50.588;9.504;2023-04-08T08:39:33;8.20;99.90
44513;DHT22;30219;50.588;9.504;2023-04-08T08:41:58;8.30;99.90
44513;DHT22;30219;50.588;9.504;2023-04-08T08:44:24;8.30;99.90
44513;DHT22;30219;50.588;9.504;2023-04-08T08:46:51;8.20;99.90
44513;DHT22;30219;50.588;9.504;2023-04-08T08:49:17;8.20;99.90
44513;DHT22;30219;50.588;9.504;2023-04-08T08:51:44;8.10;99.90
44513;DHT22;30219;50.588;9.504;2023-04-08T08:54:10;8.10;99.90
44513;DHT22;30219;50.588;9.504;2023-04-08T08:56:36;8.10;99.90
44513;DHT22;30219;50.588;9.504;2023-04-08T08:59:01;8.10;99.90
44513;DHT22;30219;50.588;9.504;2023-04-08T09:01:36;8.00;99.90
44513;DHT22;30219;50.588;9.504;2023-04-08T09:04:06;8.10;99.90
44513;DHT22;30219;50.588;9.504;2023-04-08T09:06:32;7.90;99.90
44513;DHT22;30219;50.588;9.504;2023-04-08T09:08:57;7.90;99.90
44513;DHT22;30219;50.588;9.504;2023-04-08T09:11:23;7.90;99.90
44513;DHT22;30219;50.588;9.504;2023-04-08T09:13:48;7.80;99.90
44513;DHT22;30219;50.588;9.504;2023-04-08T09:16:15;7.90;99.90
44513;DHT22;30219;50.588;9.504;2023-04-08T09:18:45;8.00;99.90
44513;DHT22;30219;50.588;9.504;2023-04-08T09:21:13;7.90;99.90
44513;DHT22;30219;50.588;9.504;2023-04-08T09:23:43;7.70;99.90
44513;DHT22;30219;50.588;9.504;2023-04-08T09:26:12;7.80;99.90
44513;DHT22;30219;50.588;9.504;2023-04-08T09:28:39;7.70;99.90
44513;DHT22;30219;50.588;9.504;2023-04-08T09:33:46;7.70;99.90
44513;DHT22;30219;50.588;9.504;2023-04-08T09:36:12;7.60;99.90
44513;DHT22;30219;50.588;9.504;2023-04-08T09:38:38;7.60;99.90
44513;DHT22;30219;50.588;9.504;2023-04-08T09:41:05;7.60;99.90
44513;DHT22;30219;50.588;9.504;2023-04-08T09:43:31;7.70;99.90
44513;DHT22;30219;50.588;9.504;2023-04-08T09:45:57;7.70;99.90
44513;DHT22;30219;50.588;9.504;2023-04-08T09:48:26;7.80;99.90
44513;DHT22;30219;50.588;9.504;2023-04-08T09:50:52;7.80;99.90
44513;DHT22;30219;50.588;9.504;2023-04-08T09:53:23;7.90;99.90
44513;DHT22;30219;50.588;9.504;2023-04-08T09:55:52;7.90;99.90
44513;DHT22;30219;50.588;9.504;2023-04-08T09:58:29;7.90;99.90
44513;DHT22;30219;50.588;9.504;2023-04-08T10:00:58;8.00;99.90
44513;DHT22;30219;50.588;9.504;2023-04-08T10:05:49;8.20;99.90
44513;DHT22;30219;50.588;9.504;2023-04-08T10:08:16;8.30;99.90
44513;DHT22;30219;50.588;9.504;2023-04-08T10:10:42;8.60;99.90
44513;DHT22;30219;50.588;9.504;2023-04-08T10:13:07;8.90;99.90
44513;DHT22;30219;50.588;9.504;2023-04-08T10:15:33;9.50;99.90
44513;DHT22;30219;50.588;9.504;2023-04-08T10:27:55;11.40;99.90
44513;DHT22;30219;50.588;9.504;2023-04-08T10:32:52;11.50;99.90
44513;DHT22;30219;50.588;9.504;2023-04-08T10:35:30;11.60;99.90
44513;DHT22;30219;50.588;9.504;2023-04-08T10:37:56;11.80;99.90
44513;DHT22;30219;50.588;9.504;2023-04-08T10:40:22;11.40;99.90
44513;DHT22;30219;50.588;9.504;2023-04-08T10:42:53;11.20;99.90
44513;DHT22;30219;50.588;9.504;2023-04-08T10:45:18;11.00;99.90
44513;DHT22;30219;50.588;9.504;2023-04-08T10:47:44;11.00;99.90
44513;DHT22;30219;50.588;9.504;2023-04-08T10:50:13;10.90;99.90
44513;DHT22;30219;50.588;9.504;2023-04-08T10:52:51;10.80;99.90
44513;DHT22;30219;50.588;9.504;2023-04-08T10:55:23;10.70;99.90
44513;DHT22;30219;50.588;9.504;2023-04-08T10:57:49;10.60;99.90
44513;DHT22;30219;50.588;9.504;2023-04-08T11:00:17;10.70;99.90
44513;DHT22;30219;50.588;9.504;2023-04-08T11:02:42;10.70;99.90
44513;DHT22;30219;50.588;9.504;2023-04-08T11:05:08;10.90;99.90
44513;DHT22;30219;50.588;9.504;2023-04-08T11:07:38;11.00;99.90
44513;DHT22;30219;50.588;9.504;2023-04-08T11:10:04;11.20;99.90
44513;DHT22;30219;50.588;9.504;2023-04-08T11:12:30;11.30;99.90
44513;DHT22;30219;50.588;9.504;2023-04-08T11:14:56;11.40;99.90
44513;DHT22;30219;50.588;9.504;2023-04-08T11:17:22;11.50;99.90
44513;DHT22;30219;50.588;9.504;2023-04-08T11:19:48;11.40;99.90
44513;DHT22;30219;50.588;9.504;2023-04-08T11:22:13;11.40;99.90
44513;DHT22;30219;50.588;9.504;2023-04-08T11:24:40;11.30;99.90
44513;DHT22;30219;50.588;9.504;2023-04-08T11:27:06;11.20;99.90
44513;DHT22;30219;50.588;9.504;2023-04-08T11:29:32;11.00;99.90
44513;DHT22;30219;50.588;9.504;2023-04-08T11:31:58;10.70;99.90
44513;DHT22;30219;50.588;9.504;2023-04-08T11:34:24;10.50;99.90
44513;DHT22;30219;50.588;9.504;2023-04-08T11:36:50;10.30;99.90
44513;DHT22;30219;50.588;9.504;2023-04-08T11:39:15;9.80;99.90
44513;DHT22;30219;50.588;9.504;2023-04-08T11:41:41;9.80;99.90
44513;DHT22;30219;50.588;9.504;2023-04-08T11:44:06;9.80;99.90
44513;DHT22;30219;50.588;9.504;2023-04-08T11:46:32;9.70;99.90
44513;DHT22;30219;50.588;9.504;2023-04-08T11:49:05;9.80;99.90
44513;DHT22;30219;50.588;9.504;2023-04-08T11:51:31;9.90;99.90
44513;DHT22;30219;50.588;9.504;2023-04-08T11:53:58;9.80;99.90
44513;DHT22;30219;50.588;9.504;2023-04-08T11:56:24;9.80;99.90
44513;DHT22;30219;50.588;9.504;2023-04-08T11:58:50;9.90;99.90
44513;DHT22;30219;50.588;9.504;2023-04-08T12:01:16;10.00;99.90
44513;DHT22;30219;50.588;9.504;2023-04-08T12:03:57;10.10;99.90
44513;DHT22;30219;50.588;9.504;2023-04-08T12:06:23;10.10;99.90
44513;DHT22;30219;50.588;9.504;2023-04-08T12:08:49;10.30;99.90
44513;DHT22;30219;50.588;9.504;2023-04-08T12:11:15;10.40;99.90
44513;DHT22;30219;50.588;9.504;2023-04-08T12:13:40;10.60;99.90
44513;DHT22;30219;50.588;9.504;2023-04-08T12:16:06;10.70;99.90
44513;DHT22;30219;50.588;9.504;2023-04-08T12:18:32;10.90;99.90
44513;DHT22;30219;50.588;9.504;2023-04-08T12:20:57;11.00;99.90
44513;DHT22;30219;50.588;9.504;2023-04-08T12:23:23;11.10;99.90
44513;DHT22;30219;50.588;9.504;2023-04-08T12:25:48;11.30;99.90
44513;DHT22;30219;50.588;9.504;2023-04-08T12:28:14;11.60;99.90
44513;DHT22;30219;50.588;9.504;2023-04-08T12:30:40;11.70;99.90
44513;DHT22;30219;50.588;9.504;2023-04-08T12:33:05;11.80;99.90
44513;DHT22;30219;50.588;9.504;2023-04-08T12:35:31;11.80;99.90
44513;DHT22;30219;50.588;9.504;2023-04-08T12:37:56;11.90;99.90
44513;DHT22;30219;50.588;9.504;2023-04-08T12:40:22;12.20;99.90
44513;DHT22;30219;50.588;9.504;2023-04-08T12:42:47;12.40;99.90
44513;DHT22;30219;50.588;9.504;2023-04-08T12:45:13;12.50;99.90
44513;DHT22;30219;50.588;9.504;2023-04-08T12:47:39;12.30;99.90
44513;DHT22;30219;50.588;9.504;2023-04-08T12:50:04;12.00;99.90
44513;DHT22;30219;50.588;9.504;2023-04-08T12:52:30;12.10;99.90
44513;DHT22;30219;50.588;9.504;2023-04-08T12:54:55;12.10;99.90
44513;DHT22;30219;50.588;9.504;2023-04-08T12:57:21;12.20;99.90
44513;DHT22;30219;50.588;9.504;2023-04-08T12:59:46;12.30;99.90
44513;DHT22;30219;50.588;9.504;2023-04-08T13:02:12;12.30;99.90
44513;DHT22;30219;50.588;9.504;2023-04-08T13:04:37;12.00;99.90
44513;DHT22;30219;50.588;9.504;2023-04-08T13:07:03;12.10;99.90
44513;DHT22;30219;50.588;9.504;2023-04-08T13:09:29;12.50;99.90
44513;DHT22;30219;50.588;9.504;2023-04-08T13:11:55;12.50;99.90
44513;DHT22;30219;50.588;9.504;2023-04-08T13:14:20;12.50;99.90
44513;DHT22;30219;50.588;9.504;2023-04-08T13:16:46;12.60;99.90
44513;DHT22;30219;50.588;9.504;2023-04-08T13:19:12;12.90;99.90
44513;DHT22;30219;50.588;9.504;2023-04-08T13:21:37;12.70;99.90
44513;DHT22;30219;50.588;9.504;2023-04-08T13:24:03;12.50;99.90
44513;DHT22;30219;50.588;9.504;2023-04-08T13:26:28;12.50;99.90
44513;DHT22;30219;50.588;9.504;2023-04-08T13:28:54;12.50;99.90
44513;DHT22;30219;50.588;9.504;2023-04-08T13:31:19;12.60;99.90
44513;DHT22;30219;50.588;9.504;2023-04-08T13:33:45;12.30;99.90
44513;DHT22;30219;50.588;9.504;2023-04-08T13:36:10;12.30;99.90
44513;DHT22;30219;50.588;9.504;2023-04-08T13:38:36;12.30;99.90
44513;DHT22;30219;50.588;9.504;2023-04-08T13:41:02;12.30;99.90
44513;DHT22;30219;50.588;9.504;2023-04-08T13:43:27;12.30;99.90
44513;DHT22;30219;50.588;9.504;2023-04-08T13:45:53;12.00;99.90
44513;DHT22;30219;50.588;9.504;2023-04-08T13:48:18;11.80;99.90
44513;DHT22;30219;50.588;9.504;2023-04-08T13:50:44;11.70;99.90
44513;DHT22;30219;50.588;9.504;2023-04-08T13:53:09;11.50;99.90
44513;DHT22;30219;50.588;9.504;2023-04-08T13:55:35;11.40;99.90
44513;DHT22;30219;50.588;9.504;2023-04-08T13:58:00;11.20;99.90
44513;DHT22;30219;50.588;9.504;2023-04-08T14:00:26;11.10;99.90
44513;DHT22;30219;50.588;9.504;2023-04-08T14:02:51;10.90;99.90
44513;DHT22;30219;50.588;9.504;2023-04-08T14:05:17;10.80;99.90
44513;DHT22;30219;50.588;9.504;2023-04-08T14:07:42;10.70;99.90
44513;DHT22;30219;50.588;9.504;2023-04-08T14:10:08;10.60;99.90
44513;DHT22;30219;50.588;9.504;2023-04-08T14:12:34;10.70;99.90
44513;DHT22;30219;50.588;9.504;2023-04-08T14:14:59;10.70;99.90
44513;DHT22;30219;50.588;9.504;2023-04-08T14:17:25;10.70;99.90
44513;DHT22;30219;50.588;9.504;2023-04-08T14:19:50;10.70;99.90
44513;DHT22;30219;50.588;9.504;2023-04-08T14:22:16;10.90;99.90
44513;DHT22;30219;50.588;9.504;2023-04-08T14:24:43;10.90;99.90
44513;DHT22;30219;50.588;9.504;2023-04-08T14:27:08;10.80;99.90
44513;DHT22;30219;50.588;9.504;2023-04-08T14:29:34;10.80;99.90
44513;DHT22;30219;50.588;9.504;2023-04-08T14:32:00;10.70;99.90
44513;DHT22;30219;50.588;9.504;2023-04-08T14:34:25;10.70;99.90
44513;DHT22;30219;50.588;9.504;2023-04-08T14:36:51;10.60;99.90
44513;DHT22;30219;50.588;9.504;2023-04-08T14:39:16;10.50;99.90
44513;DHT22;30219;50.588;9.504;2023-04-08T14:41:42;10.30;99.90
44513;DHT22;30219;50.588;9.504;2023-04-08T14:44:07;10.30;99.90
44513;DHT22;30219;50.588;9.504;2023-04-08T14:46:33;10.20;99.90
44513;DHT22;30219;50.588;9.504;2023-04-08T14:48:58;10.20;99.90
44513;DHT22;30219;50.588;9.504;2023-04-08T14:51:25;10.00;99.90
44513;DHT22;30219;50.588;9.504;2023-04-08T14:53:50;10.00;99.90
44513;DHT22;30219;50.588;9.504;2023-04-08T14:56:16;9.90;99.90
44513;DHT22;30219;50.588;9.504;2023-04-08T14:58:41;9.90;99.90
44513;DHT22;30219;50.588;9.504;2023-04-08T15:01:07;10.00;99.90
44513;DHT22;30219;50.588;9.504;2023-04-08T15:03:32;10.00;99.90
44513;DHT22;30219;50.588;9.504;2023-04-08T15:05:57;9.80;99.90
44513;DHT22;30219;50.588;9.504;2023-04-08T15:08:23;9.90;99.90
44513;DHT22;30219;50.588;9.504;2023-04-08T15:10:49;10.00;99.90
44513;DHT22;30219;50.588;9.504;2023-04-08T15:13:14;9.90;99.90
44513;DHT22;30219;50.588;9.504;2023-04-08T15:15:40;9.80;99.90
44513;DHT22;30219;50.588;9.504;2023-04-08T15:18:06;9.80;99.90
44513;DHT22;30219;50.588;9.504;2023-04-08T15:20:31;9.80;99.90
44513;DHT22;30219;50.588;9.504;2023-04-08T15:22:56;9.90;99.90
44513;DHT22;30219;50.588;9.504;2023-04-08T15:25:22;9.90;99.90
44513;DHT22;30219;50.588;9.504;2023-04-08T15:27:47;9.80;99.90
44513;DHT22;30219;50.588;9.504;2023-04-08T15:30:13;9.80;99.90
44513;DHT22;30219;50.588;9.504;2023-04-08T15:32:39;9.70;99.90
44513;DHT22;30219;50.588;9.504;2023-04-08T15:35:05;9.70;99.90
44513;DHT22;30219;50.588;9.504;2023-04-08T15:37:31;9.80;99.90
44513;DHT22;30219;50.588;9.504;2023-04-08T15:39:56;9.80;99.90
44513;DHT22;30219;50.588;9.504;2023-04-08T15:42:22;9.80;99.90
44513;DHT22;30219;50.588;9.504;2023-04-08T15:44:47;9.90;99.90
44513;DHT22;30219;50.588;9.504;2023-04-08T15:47:13;9.80;99.90
44513;DHT22;30219;50.588;9.504;2023-04-08T15:49:38;9.60;99.90
44513;DHT22;30219;50.588;9.504;2023-04-08T15:52:04;9.60;99.90
44513;DHT22;30219;50.588;9.504;2023-04-08T15:54:32;9.60;99.90
44513;DHT22;30219;50.588;9.504;2023-04-08T15:56:58;9.50;99.90
44513;DHT22;30219;50.588;9.504;2023-04-08T15:59:23;9.50;99.90
44513;DHT22;30219;50.588;9.504;2023-04-08T16:01:49;9.60;99.90
44513;DHT22;30219;50.588;9.504;2023-04-08T16:04:14;9.60;99.90